Time;durP1;ratioP1;P1;durP2;ratioP2;P2;SDS_P1;SDS_P2;PMS_P1;PMS_P2;Temp;Humidity;BMP_temperature;BMP_pressure;BME280_temperature;BME280_humidity;BME280_pressure;Samples;Min_cycle;Max_cycle;Signal;HPM_P1;HPM_P2
2021/01/15 00:00:43;;;;;;;4.32;3.33;;;;;;;;;;5053270;28;20653;-68
2021/01/15 00:03:09;;;;;;;6.70;3.65;;;;;;;;;;5053630;28;20106;-68
2021/01/15 00:05:38;;;;;;;11.02;4.63;;;;;;;;;;5052790;28;20646;-68
2021/01/15 00:08:06;;;;;;;10.05;4.07;;;;;;;;;;5053309;28;20053;-68
2021/01/15 00:10:32;;;;;;;5.32;3.50;;;;;;;;;;5051624;28;20503;-68
2021/01/15 00:12:58;;;;;;;4.22;3.15;;;;;;;;;;5051829;28;20115;-68
2021/01/15 00:15:24;;;;;;;5.57;3.05;;;;;;;;;;5052526;28;20053;-68
2021/01/15 00:17:50;;;;;;;4.63;2.85;;;;;;;;;;5052757;28;20056;-67
2021/01/15 00:20:16;;;;;;;4.00;3.15;;;;;;;;;;5053264;28;20049;-68
2021/01/15 00:22:43;;;;;;;4.65;3.15;;;;;;;;;;5052862;28;20081;-68
2021/01/15 00:25:10;;;;;;;5.97;3.28;;;;;;;;;;5053160;28;20102;-68
2021/01/15 00:27:37;;;;;;;3.25;2.95;;;;;;;;;;5052589;28;20048;-68
2021/01/15 00:30:08;;;;;;;7.85;2.80;;;;;;;;;;5052993;28;20049;-69
2021/01/15 00:32:35;;;;;;;4.55;2.90;;;;;;;;;;5052660;28;20071;-68
2021/01/15 00:35:03;;;;;;;7.10;3.17;;;;;;;;;;5052176;28;20053;-68
2021/01/15 00:37:29;;;;;;;7.35;3.40;;;;;;;;;;5051098;28;20119;-68
2021/01/15 00:39:55;;;;;;;4.80;2.97;;;;;;;;;;5053371;28;20049;-68
2021/01/15 00:42:21;;;;;;;5.43;3.05;;;;;;;;;;5054030;28;20443;-68
2021/01/15 00:44:47;;;;;;;7.80;2.35;;;;;;;;;;5053409;28;20460;-68
2021/01/15 00:47:13;;;;;;;3.25;2.60;;;;;;;;;;5053450;28;20045;-68
2021/01/15 00:49:40;;;;;;;4.55;2.50;;;;;;;;;;5052664;28;20057;-68
2021/01/15 00:52:06;;;;;;;4.90;2.90;;;;;;;;;;5053745;28;20458;-68
2021/01/15 00:54:32;;;;;;;4.57;2.33;;;;;;;;;;5053408;28;20048;-68
2021/01/15 00:57:03;;;;;;;3.10;2.38;;;;;;;;;;5053154;28;20072;-68
2021/01/15 00:59:29;;;;;;;3.88;2.33;;;;;;;;;;5053444;28;20084;-67
2021/01/15 01:01:55;;;;;;;3.83;2.40;;;;;;;;;;5053250;28;20491;-67
2021/01/15 01:04:21;;;;;;;5.22;2.63;;;;;;;;;;5053266;28;20412;-67
2021/01/15 01:06:47;;;;;;;5.43;2.47;;;;;;;;;;5052893;28;20091;-67
2021/01/15 01:09:13;;;;;;;4.10;2.30;;;;;;;;;;5053340;28;20099;-68
2021/01/15 01:11:39;;;;;;;3.33;2.30;;;;;;;;;;5053000;28;20049;-68
2021/01/15 01:14:05;;;;;;;2.58;2.17;;;;;;;;;;5053170;28;20049;-68
2021/01/15 01:16:32;;;;;;;3.35;2.10;;;;;;;;;;5052805;28;20041;-68
2021/01/15 01:18:59;;;;;;;2.47;2.05;;;;;;;;;;5053033;28;20055;-68
2021/01/15 01:21:25;;;;;;;3.30;2.20;;;;;;;;;;5052934;28;20060;-68
2021/01/15 01:23:52;;;;;;;3.88;2.40;;;;;;;;;;5052918;28;20110;-68
2021/01/15 01:26:19;;;;;;;5.18;2.92;;;;;;;;;;5052776;28;20041;-68
2021/01/15 01:28:45;;;;;;;2.95;2.20;;;;;;;;;;5052858;28;20106;-68
2021/01/15 01:31:13;;;;;;;4.70;2.45;;;;;;;;;;5052860;28;20045;-68
2021/01/15 01:33:39;;;;;;;2.88;2.15;;;;;;;;;;5052762;28;20550;-68
2021/01/15 01:36:06;;;;;;;2.85;2.05;;;;;;;;;;5052376;28;20041;-68
2021/01/15 01:38:32;;;;;;;5.15;3.40;;;;;;;;;;5052557;28;20507;-68
2021/01/15 01:40:58;;;;;;;3.83;2.38;;;;;;;;;;5035083;28;20107;-68
2021/01/15 01:43:25;;;;;;;3.13;2.53;;;;;;;;;;5052689;28;20079;-68
2021/01/15 01:45:51;;;;;;;5.93;3.00;;;;;;;;;;5044758;28;20080;-68
2021/01/15 01:48:17;;;;;;;5.45;2.90;;;;;;;;;;5031541;28;20425;-68
2021/01/15 01:50:43;;;;;;;3.88;2.88;;;;;;;;;;5031125;28;20068;-68
2021/01/15 01:53:12;;;;;;;6.03;2.92;;;;;;;;;;5041591;28;20049;-68
2021/01/15 01:55:39;;;;;;;8.20;3.30;;;;;;;;;;5031278;28;20053;-67
2021/01/15 01:58:05;;;;;;;6.32;3.28;;;;;;;;;;5015273;28;20049;-68
2021/01/15 02:00:34;;;;;;;4.80;2.80;;;;;;;;;;4998850;28;20049;-68
2021/01/15 02:03:00;;;;;;;3.50;3.10;;;;;;;;;;5031129;28;20073;-67
2021/01/15 02:05:26;;;;;;;5.05;3.03;;;;;;;;;;5032041;28;20053;-69
2021/01/15 02:07:52;;;;;;;2.97;2.60;;;;;;;;;;5032240;28;20118;-68
2021/01/15 02:10:32;;;;;;;5.13;3.17;;;;;;;;;;5032243;28;20054;-67
2021/01/15 02:13:19;;;;;;;5.70;2.67;;;;;;;;;;5015249;28;20080;-68
2021/01/15 02:15:57;;;;;;;8.55;3.13;;;;;;;;;;5030727;28;20085;-68
2021/01/15 02:18:34;;;;;;;2.78;2.40;;;;;;;;;;5032192;28;20052;-68
2021/01/15 02:21:34;;;;;;;4.82;2.75;;;;;;;;;;5032262;28;20080;-69
2021/01/15 02:24:32;;;;;;;5.43;2.53;;;;;;;;;;5034574;28;20079;-68
2021/01/15 02:27:35;;;;;;;5.05;2.97;;;;;;;;;;5031849;28;20115;-68
2021/01/15 02:30:03;;;;;;;3.42;2.58;;;;;;;;;;5031895;28;20049;-68
2021/01/15 02:32:41;;;;;;;5.60;2.90;;;;;;;;;;5030852;28;20076;-68
2021/01/15 02:35:45;;;;;;;6.68;2.88;;;;;;;;;;5015032;28;20416;-67
2021/01/15 02:38:36;;;;;;;6.13;4.05;;;;;;;;;;5019968;28;20518;-68
2021/01/15 02:41:22;;;;;;;7.28;3.90;;;;;;;;;;5030539;28;20050;-68
2021/01/15 02:43:49;;;;;;;4.30;3.03;;;;;;;;;;5037464;28;20053;-67
2021/01/15 02:46:18;;;;;;;5.60;3.83;;;;;;;;;;5031584;28;20051;-67
2021/01/15 02:48:47;;;;;;;5.80;3.63;;;;;;;;;;5030360;28;20054;-67
2021/01/15 02:51:13;;;;;;;6.70;3.38;;;;;;;;;;5030529;28;20045;-67
2021/01/15 02:53:39;;;;;;;8.75;3.42;;;;;;;;;;5031454;28;20045;-67
2021/01/15 02:56:06;;;;;;;3.92;3.33;;;;;;;;;;5029947;28;20668;-69
2021/01/15 02:58:32;;;;;;;5.40;3.35;;;;;;;;;;5041137;28;20101;-68
2021/01/15 03:00:58;;;;;;;6.70;3.13;;;;;;;;;;5044371;28;20104;-68
2021/01/15 03:03:39;;;;;;;5.78;3.10;;;;;;;;;;5031575;28;20152;-68
2021/01/15 03:06:13;;;;;;;3.67;3.05;;;;;;;;;;5016913;28;20084;-68
2021/01/15 03:08:39;;;;;;;6.95;3.45;;;;;;;;;;5029620;28;20077;-69
2021/01/15 03:11:05;;;;;;;3.78;2.97;;;;;;;;;;5030572;28;20049;-68
2021/01/15 03:13:32;;;;;;;4.93;2.85;;;;;;;;;;5033450;28;20477;-69
2021/01/15 03:16:01;;;;;;;4.65;3.45;;;;;;;;;;5034535;28;20065;-68
2021/01/15 03:18:28;;;;;;;6.50;3.15;;;;;;;;;;5034218;28;20045;-68
2021/01/15 03:20:54;;;;;;;4.00;3.10;;;;;;;;;;5022210;28;20122;-67
2021/01/15 03:23:20;;;;;;;4.93;3.33;;;;;;;;;;5042944;28;20077;-68
2021/01/15 03:25:46;;;;;;;5.70;3.15;;;;;;;;;;5041997;28;20099;-68
2021/01/15 03:28:13;;;;;;;5.60;3.65;;;;;;;;;;5035304;28;20049;-67
2021/01/15 03:30:39;;;;;;;7.20;3.53;;;;;;;;;;5035097;28;20045;-67
2021/01/15 03:33:05;;;;;;;6.05;3.75;;;;;;;;;;5035103;28;20424;-68
2021/01/15 03:35:32;;;;;;;6.35;3.72;;;;;;;;;;5034832;28;20049;-67
2021/01/15 03:38:02;;;;;;;7.63;3.63;;;;;;;;;;5034711;28;20104;-68
2021/01/15 03:40:39;;;;;;;6.20;3.30;;;;;;;;;;5034700;28;20136;-68
2021/01/15 03:43:21;;;;;;;8.38;3.67;;;;;;;;;;5035523;28;20088;-68
2021/01/15 03:45:48;;;;;;;5.72;3.15;;;;;;;;;;5034668;28;20479;-68
2021/01/15 03:48:15;;;;;;;5.25;3.78;;;;;;;;;;5034716;28;20509;-68
2021/01/15 03:50:42;;;;;;;5.50;3.42;;;;;;;;;;5045965;28;20049;-68
2021/01/15 03:53:08;;;;;;;5.30;3.67;;;;;;;;;;5051355;28;20122;-68
2021/01/15 03:55:34;;;;;;;5.03;3.40;;;;;;;;;;5036551;28;20091;-68
2021/01/15 03:58:01;;;;;;;5.45;3.78;;;;;;;;;;5035103;28;20103;-68
2021/01/15 04:00:27;;;;;;;4.55;3.40;;;;;;;;;;5042359;28;20050;-68
2021/01/15 04:02:54;;;;;;;6.97;3.35;;;;;;;;;;5039218;28;20050;-68
2021/01/15 04:05:20;;;;;;;7.82;4.25;;;;;;;;;;5042184;28;20091;-68
2021/01/15 04:07:46;;;;;;;7.45;4.18;;;;;;;;;;5043010;28;20480;-68
2021/01/15 04:10:14;;;;;;;6.53;3.80;;;;;;;;;;5045099;28;20080;-68
2021/01/15 04:12:40;;;;;;;6.00;3.35;;;;;;;;;;5044278;28;20069;-68
2021/01/15 04:15:07;;;;;;;8.98;4.32;;;;;;;;;;5043998;28;20081;-68
2021/01/15 04:17:34;;;;;;;5.82;3.63;;;;;;;;;;5043387;28;20064;-68
2021/01/15 04:20:00;;;;;;;4.07;3.00;;;;;;;;;;5043089;28;20050;-68
2021/01/15 04:22:32;;;;;;;8.52;4.93;;;;;;;;;;5038902;28;20107;-68
2021/01/15 04:24:59;;;;;;;8.40;5.75;;;;;;;;;;5036828;28;20118;-68
2021/01/15 04:27:28;;;;;;;7.82;4.65;;;;;;;;;;5044625;28;20120;-68
2021/01/15 04:29:54;;;;;;;7.97;3.92;;;;;;;;;;5044542;28;20060;-68
2021/01/15 04:32:21;;;;;;;5.22;3.80;;;;;;;;;;5042607;28;20076;-68
2021/01/15 04:34:47;;;;;;;5.38;3.90;;;;;;;;;;5037737;28;20044;-68
2021/01/15 04:37:13;;;;;;;4.97;3.75;;;;;;;;;;5039304;28;20069;-68
2021/01/15 04:39:39;;;;;;;5.88;3.95;;;;;;;;;;5039785;28;20049;-68
2021/01/15 04:42:06;;;;;;;7.22;4.20;;;;;;;;;;5037702;28;20049;-68
2021/01/15 04:44:32;;;;;;;5.03;3.72;;;;;;;;;;5042799;28;20096;-68
2021/01/15 04:46:58;;;;;;;4.75;3.92;;;;;;;;;;5016587;28;20088;-68
2021/01/15 04:49:25;;;;;;;7.90;4.05;;;;;;;;;;5036021;28;20098;-68
2021/01/15 04:51:55;;;;;;;5.45;3.42;;;;;;;;;;5052454;28;20106;-68
2021/01/15 04:54:23;;;;;;;5.72;3.83;;;;;;;;;;5052398;28;20045;-68
2021/01/15 04:56:50;;;;;;;5.63;3.67;;;;;;;;;;5052127;28;20045;-68
2021/01/15 04:59:17;;;;;;;5.47;3.80;;;;;;;;;;5053632;28;20451;-68
2021/01/15 05:01:44;;;;;;;6.55;3.92;;;;;;;;;;5053299;28;20102;-68
2021/01/15 05:04:20;;;;;;;5.78;4.18;;;;;;;;;;5043707;28;20419;-68
2021/01/15 05:06:50;;;;;;;5.60;4.18;;;;;;;;;;5033110;28;20073;-68
2021/01/15 05:09:22;;;;;;;8.20;4.68;;;;;;;;;;5032248;28;20053;-68
2021/01/15 05:11:50;;;;;;;8.52;4.43;;;;;;;;;;5033459;28;20050;-68
2021/01/15 05:14:17;;;;;;;6.88;3.95;;;;;;;;;;5033390;28;20463;-68
2021/01/15 05:16:46;;;;;;;4.78;4.10;;;;;;;;;;5032868;28;20041;-68
2021/01/15 05:19:13;;;;;;;7.05;4.15;;;;;;;;;;5033281;28;20057;-68
2021/01/15 05:21:40;;;;;;;5.55;3.92;;;;;;;;;;5033187;28;20078;-68
2021/01/15 05:24:06;;;;;;;7.10;3.33;;;;;;;;;;5033091;28;20053;-68
2021/01/15 05:26:36;;;;;;;5.93;4.15;;;;;;;;;;5032802;28;20053;-68
2021/01/15 05:29:04;;;;;;;8.98;4.22;;;;;;;;;;5033217;28;20075;-68
2021/01/15 05:31:56;;;;;;;10.10;5.30;;;;;;;;;;5033029;28;20049;-68
2021/01/15 05:34:27;;;;;;;8.30;4.28;;;;;;;;;;5047536;28;20045;-68
2021/01/15 05:36:53;;;;;;;7.82;4.63;;;;;;;;;;5052161;28;20104;-68
2021/01/15 05:39:25;;;;;;;7.43;4.40;;;;;;;;;;5051583;28;20084;-68
2021/01/15 05:41:59;;;;;;;7.78;4.20;;;;;;;;;;5052626;28;20052;-68
2021/01/15 05:44:28;;;;;;;7.43;4.63;;;;;;;;;;5052461;28;20436;-68
2021/01/15 05:46:54;;;;;;;8.13;4.75;;;;;;;;;;5052235;28;20080;-68
2021/01/15 05:49:20;;;;;;;6.60;4.72;;;;;;;;;;5052550;28;20094;-68
2021/01/15 05:51:46;;;;;;;6.53;4.20;;;;;;;;;;5052405;28;20083;-68
2021/01/15 05:54:26;;;;;;;6.97;4.05;;;;;;;;;;5052117;28;20111;-68
2021/01/15 05:56:53;;;;;;;9.30;5.30;;;;;;;;;;5050984;28;20528;-68
2021/01/15 05:59:19;;;;;;;8.10;4.55;;;;;;;;;;5051161;28;20397;-68
2021/01/15 06:01:51;;;;;;;7.03;4.40;;;;;;;;;;5052280;28;20076;-68
2021/01/15 06:04:32;;;;;;;8.45;4.82;;;;;;;;;;5052236;28;20131;-68
2021/01/15 06:07:00;;;;;;;7.10;4.60;;;;;;;;;;5052075;28;20049;-68
2021/01/15 06:09:26;;;;;;;6.63;4.30;;;;;;;;;;5052094;28;20093;-68
2021/01/15 06:11:53;;;;;;;7.50;4.97;;;;;;;;;;5052193;28;20072;-68
2021/01/15 06:14:24;;;;;;;8.15;6.10;;;;;;;;;;5050960;28;20053;-67
2021/01/15 06:17:06;;;;;;;8.35;5.15;;;;;;;;;;5033319;28;20049;-68
2021/01/15 06:19:56;;;;;;;9.20;5.32;;;;;;;;;;5032075;28;20478;-68
2021/01/15 06:22:27;;;;;;;8.13;5.40;;;;;;;;;;5031090;28;20053;-68
2021/01/15 06:25:06;;;;;;;8.68;5.32;;;;;;;;;;5031898;28;20084;-68
2021/01/15 06:27:37;;;;;;;7.78;5.10;;;;;;;;;;5030760;28;20111;-68
2021/01/15 06:30:06;;;;;;;8.13;4.68;;;;;;;;;;5033178;28;20179;-67
2021/01/15 06:32:32;;;;;;;8.68;5.05;;;;;;;;;;5034204;28;20053;-67
2021/01/15 06:34:58;;;;;;;9.65;5.00;;;;;;;;;;5031672;28;20049;-68
2021/01/15 06:37:25;;;;;;;8.27;5.45;;;;;;;;;;5031759;28;20083;-67
2021/01/15 06:40:03;;;;;;;6.85;5.15;;;;;;;;;;5042097;28;20049;-68
2021/01/15 06:42:30;;;;;;;11.40;5.15;;;;;;;;;;5051178;28;20079;-68
2021/01/15 06:44:57;;;;;;;7.10;4.60;;;;;;;;;;5046479;28;20056;-68
2021/01/15 06:47:28;;;;;;;10.50;5.97;;;;;;;;;;5028801;28;20076;-68
2021/01/15 06:49:57;;;;;;;10.45;5.28;;;;;;;;;;5013414;28;20424;-68
2021/01/15 06:52:26;;;;;;;11.35;5.38;;;;;;;;;;5031693;28;20602;-68
2021/01/15 06:54:55;;;;;;;9.00;5.72;;;;;;;;;;5031685;28;20132;-68
2021/01/15 06:57:28;;;;;;;9.35;5.55;;;;;;;;;;5013800;28;20045;-68
2021/01/15 06:59:54;;;;;;;10.77;4.10;;;;;;;;;;5034790;28;20404;-68
2021/01/15 07:02:40;;;;;;;10.10;5.63;;;;;;;;;;5050266;28;20503;-67
2021/01/15 07:05:06;;;;;;;9.73;6.18;;;;;;;;;;5031762;28;20139;-68
2021/01/15 07:07:33;;;;;;;9.70;6.00;;;;;;;;;;5013773;28;20095;-67
2021/01/15 07:10:00;;;;;;;9.40;5.60;;;;;;;;;;5045708;28;20057;-67
2021/01/15 07:12:26;;;;;;;10.07;5.88;;;;;;;;;;5050116;28;20134;-68
2021/01/15 07:14:55;;;;;;;9.52;5.90;;;;;;;;;;5051129;28;20099;-68
2021/01/15 07:17:37;;;;;;;11.70;6.63;;;;;;;;;;5050038;28;20080;-68
2021/01/15 07:20:05;;;;;;;10.20;6.35;;;;;;;;;;5046123;28;20129;-67
2021/01/15 07:22:35;;;;;;;11.27;7.30;;;;;;;;;;5051289;28;20057;-68
2021/01/15 07:25:04;;;;;;;10.88;6.97;;;;;;;;;;5051366;28;20049;-68
2021/01/15 07:27:30;;;;;;;13.07;6.78;;;;;;;;;;5050930;28;20079;-68
2021/01/15 07:29:56;;;;;;;15.95;7.55;;;;;;;;;;5051255;28;20455;-68
2021/01/15 07:32:25;;;;;;;10.55;7.07;;;;;;;;;;5033633;28;20404;-67
2021/01/15 07:34:55;;;;;;;11.88;7.07;;;;;;;;;;5049921;28;20056;-67
2021/01/15 07:37:25;;;;;;;12.23;6.93;;;;;;;;;;5049755;28;20048;-70
2021/01/15 07:40:28;;;;;;;13.40;7.40;;;;;;;;;;5050157;28;20180;-67
2021/01/15 07:42:58;;;;;;;12.80;7.50;;;;;;;;;;4974778;28;20104;-68
2021/01/15 07:45:25;;;;;;;12.27;7.03;;;;;;;;;;5036104;28;20041;-68
2021/01/15 07:48:05;;;;;;;11.65;7.25;;;;;;;;;;5046704;28;20045;-68
2021/01/15 07:50:42;;;;;;;16.10;8.23;;;;;;;;;;5045418;28;20103;-68
2021/01/15 07:53:17;;;;;;;16.75;9.27;;;;;;;;;;5046859;28;20076;-68
2021/01/15 07:55:51;;;;;;;12.02;8.18;;;;;;;;;;5046712;28;20095;-68
2021/01/15 07:58:19;;;;;;;13.18;8.55;;;;;;;;;;5048404;28;20041;-68
2021/01/15 08:00:46;;;;;;;15.25;8.55;;;;;;;;;;5049810;28;20052;-68
2021/01/15 08:03:13;;;;;;;16.27;8.20;;;;;;;;;;5051657;28;20091;-68
2021/01/15 08:05:40;;;;;;;16.08;8.55;;;;;;;;;;5050242;28;20072;-68
2021/01/15 08:08:11;;;;;;;15.40;8.55;;;;;;;;;;5051443;28;20041;-68
2021/01/15 08:10:50;;;;;;;17.50;10.23;;;;;;;;;;5051147;28;20048;-68
2021/01/15 08:13:22;;;;;;;14.68;9.23;;;;;;;;;;5050511;28;20053;-68
2021/01/15 08:15:48;;;;;;;15.85;8.52;;;;;;;;;;5050930;28;20049;-68
2021/01/15 08:18:15;;;;;;;14.90;8.68;;;;;;;;;;5050466;28;20111;-68
2021/01/15 08:20:51;;;;;;;16.27;10.10;;;;;;;;;;5051817;28;20060;-68
2021/01/15 08:23:21;;;;;;;18.20;9.90;;;;;;;;;;5051878;28;20049;-68
2021/01/15 08:25:49;;;;;;;14.60;8.95;;;;;;;;;;5051379;28;20053;-68
2021/01/15 08:28:15;;;;;;;13.60;8.60;;;;;;;;;;5051935;28;20123;-68
2021/01/15 08:31:08;;;;;;;17.13;8.52;;;;;;;;;;5052033;28;20052;-68
2021/01/15 08:33:34;;;;;;;13.75;8.70;;;;;;;;;;5043267;28;20141;-68
2021/01/15 08:36:02;;;;;;;15.52;8.13;;;;;;;;;;5051511;28;20488;-68
2021/01/15 08:38:33;;;;;;;12.98;7.72;;;;;;;;;;5048643;28;20095;-68
2021/01/15 08:41:14;;;;;;;14.15;7.80;;;;;;;;;;5035194;28;20049;-68
2021/01/15 08:43:40;;;;;;;14.60;8.45;;;;;;;;;;5048201;28;20045;-67
2021/01/15 08:46:06;;;;;;;14.50;8.57;;;;;;;;;;5048981;28;20088;-67
2021/01/15 08:48:32;;;;;;;14.18;9.13;;;;;;;;;;5048711;28;20090;-67
2021/01/15 08:51:11;;;;;;;13.25;7.35;;;;;;;;;;5048593;28;20056;-67
2021/01/15 08:54:03;;;;;;;11.93;7.78;;;;;;;;;;5045657;28;20088;-67
2021/01/15 08:56:49;;;;;;;13.82;7.95;;;;;;;;;;5049843;28;20126;-67
2021/01/15 08:59:31;;;;;;;17.85;7.68;;;;;;;;;;5050492;28;20558;-68
2021/01/15 09:01:58;;;;;;;14.57;7.18;;;;;;;;;;5050355;28;20169;-68
2021/01/15 09:04:27;;;;;;;12.93;7.60;;;;;;;;;;5049326;28;20057;-68
2021/01/15 09:06:54;;;;;;;13.52;8.18;;;;;;;;;;5049894;28;20122;-68
2021/01/15 09:09:21;;;;;;;15.38;7.85;;;;;;;;;;5049509;28;20055;-67
2021/01/15 09:11:49;;;;;;;13.13;7.72;;;;;;;;;;5048988;28;20486;-67
2021/01/15 09:14:21;;;;;;;15.32;8.20;;;;;;;;;;5046219;28;20045;-68
2021/01/15 09:16:49;;;;;;;13.68;8.07;;;;;;;;;;5044794;28;20077;-68
2021/01/15 09:19:16;;;;;;;12.00;7.88;;;;;;;;;;5049396;28;20530;-69
2021/01/15 09:22:04;;;;;;;13.98;7.55;;;;;;;;;;5050395;28;20053;-69
2021/01/15 09:24:32;;;;;;;14.70;8.25;;;;;;;;;;5046865;28;20106;-68
2021/01/15 09:26:59;;;;;;;13.07;7.80;;;;;;;;;;5050557;28;20056;-69
2021/01/15 09:29:26;;;;;;;15.27;8.90;;;;;;;;;;5049412;28;20132;-69
2021/01/15 09:31:53;;;;;;;13.50;8.15;;;;;;;;;;5051589;28;20496;-69
2021/01/15 09:34:20;;;;;;;14.98;9.07;;;;;;;;;;5050952;28;20056;-67
2021/01/15 09:36:47;;;;;;;19.70;9.32;;;;;;;;;;5050778;28;20049;-67
2021/01/15 09:39:15;;;;;;;14.57;8.63;;;;;;;;;;5050338;28;20056;-68
2021/01/15 09:41:48;;;;;;;13.38;8.95;;;;;;;;;;5049087;28;20099;-68
2021/01/15 09:44:16;;;;;;;12.80;8.70;;;;;;;;;;5069355;22;20037;-69
2021/01/15 09:46:43;;;;;;;15.93;9.07;;;;;;;;;;5071097;28;20048;-70
2021/01/15 09:49:09;;;;;;;14.88;8.40;;;;;;;;;;5070936;28;20075;-70
2021/01/15 09:51:35;;;;;;;13.50;7.50;;;;;;;;;;5070506;28;20060;-70
2021/01/15 09:54:02;;;;;;;13.75;8.60;;;;;;;;;;5069078;28;20098;-70
2021/01/15 09:56:29;;;;;;;13.48;9.07;;;;;;;;;;5057623;28;20052;-70
2021/01/15 09:58:57;;;;;;;12.93;8.60;;;;;;;;;;5061113;28;20048;-70
2021/01/15 10:01:24;;;;;;;13.63;8.85;;;;;;;;;;5059102;28;20060;-69
2021/01/15 10:03:55;;;;;;;15.13;8.82;;;;;;;;;;5058020;28;20049;-69
2021/01/15 10:06:22;;;;;;;15.75;9.50;;;;;;;;;;5036652;28;20103;-69
2021/01/15 10:08:49;;;;;;;14.02;9.05;;;;;;;;;;5029110;28;20049;-70
2021/01/15 10:11:36;;;;;;;12.60;8.63;;;;;;;;;;5030968;28;20054;-69
2021/01/15 10:14:05;;;;;;;15.00;8.55;;;;;;;;;;5031059;28;20049;-69
2021/01/15 10:16:31;;;;;;;14.48;8.77;;;;;;;;;;5030865;28;20122;-69
2021/01/15 10:18:57;;;;;;;14.55;9.10;;;;;;;;;;5032221;28;20118;-69
2021/01/15 10:21:26;;;;;;;13.75;8.65;;;;;;;;;;5031601;28;20054;-70
2021/01/15 10:23:52;;;;;;;13.43;8.63;;;;;;;;;;5031634;28;20090;-69
2021/01/15 10:26:38;;;;;;;21.05;8.82;;;;;;;;;;5031900;28;20052;-69
2021/01/15 10:29:09;;;;;;;11.93;7.95;;;;;;;;;;5030683;28;20049;-69
2021/01/15 10:31:55;;;;;;;15.95;8.80;;;;;;;;;;5030703;28;20054;-69
2021/01/15 10:34:23;;;;;;;14.55;9.75;;;;;;;;;;5031863;28;20401;-70
2021/01/15 10:36:50;;;;;;;13.05;8.07;;;;;;;;;;5031771;28;20057;-69
2021/01/15 10:39:16;;;;;;;13.30;8.80;;;;;;;;;;5031723;28;20122;-71
2021/01/15 10:41:47;;;;;;;11.73;8.13;;;;;;;;;;5030413;28;20105;-66
2021/01/15 10:44:19;;;;;;;13.18;8.50;;;;;;;;;;5031720;28;20092;-66
2021/01/15 10:46:48;;;;;;;13.63;8.07;;;;;;;;;;5031344;28;20046;-66
2021/01/15 10:49:17;;;;;;;16.67;9.15;;;;;;;;;;5031699;28;20053;-67
2021/01/15 10:51:55;;;;;;;15.18;10.02;;;;;;;;;;5030792;28;20079;-69
2021/01/15 10:54:22;;;;;;;18.77;8.90;;;;;;;;;;5047978;28;20052;-71
2021/01/15 10:56:51;;;;;;;16.20;9.50;;;;;;;;;;5054844;28;20546;-70
2021/01/15 10:59:18;;;;;;;14.80;9.55;;;;;;;;;;5057800;28;20110;-72
2021/01/15 11:01:48;;;;;;;15.02;9.20;;;;;;;;;;5023448;28;20052;-71
2021/01/15 11:04:16;;;;;;;14.15;8.88;;;;;;;;;;5057449;28;20136;-73
2021/01/15 11:06:54;;;;;;;17.27;9.75;;;;;;;;;;5058482;28;20060;-71
2021/01/15 11:09:48;;;;;;;13.52;8.68;;;;;;;;;;5058177;28;20094;-73
2021/01/15 11:13:35;;;;;;;12.75;8.60;;;;;;;;;;5053281;28;20053;-71
2021/01/15 11:16:12;;;;;;;13.60;9.57;;;;;;;;;;4981988;28;20073;-70
2021/01/15 11:18:52;;;;;;;12.55;8.30;;;;;;;;;;5057025;28;20068;-72
2021/01/15 11:25:25;;;;;;;14.13;8.50;;;;;;;;;;5057117;28;20041;-72
2021/01/15 11:27:59;;;;;;;13.18;9.05;;;;;;;;;;5039152;28;20078;-72
2021/01/15 11:30:39;;;;;;;15.50;9.48;;;;;;;;;;5059473;28;20049;-71
2021/01/15 11:33:05;;;;;;;11.48;8.25;;;;;;;;;;5057936;28;20049;-72
2021/01/15 11:36:10;;;;;;;15.80;10.02;;;;;;;;;;5062562;28;20058;-73
2021/01/15 11:38:43;;;;;;;14.60;9.25;;;;;;;;;;5034051;28;20490;-70
2021/01/15 11:41:15;;;;;;;14.15;9.48;;;;;;;;;;5044411;28;20143;-71
2021/01/15 11:43:49;;;;;;;13.10;9.27;;;;;;;;;;5053418;28;20056;-71
2021/01/15 11:46:21;;;;;;;13.80;10.23;;;;;;;;;;5045774;28;20049;-70
2021/01/15 11:48:48;;;;;;;;;;;;;;;;;;5060208;28;20119;-69
2021/01/15 11:51:18;;;;;;;12.85;8.55;;;;;;;;;;5063695;28;19972;-66
2021/01/15 11:53:44;;;;;;;14.50;9.65;;;;;;;;;;5060752;28;20049;-67
2021/01/15 11:56:11;;;;;;;15.75;9.07;;;;;;;;;;5062702;28;20045;-66
2021/01/15 11:58:37;;;;;;;9.50;6.85;;;;;;;;;;5062909;28;20055;-65
2021/01/15 12:01:04;;;;;;;10.93;7.38;;;;;;;;;;5062961;28;20049;-65
2021/01/15 12:03:31;;;;;;;11.48;8.38;;;;;;;;;;5060912;28;20080;-65
2021/01/15 12:05:57;;;;;;;11.25;8.32;;;;;;;;;;5061008;28;20067;-65
2021/01/15 12:08:24;;;;;;;13.55;8.40;;;;;;;;;;5060177;28;20045;-65
2021/01/15 12:10:56;;;;;;;13.00;8.35;;;;;;;;;;5060807;28;20048;-66
2021/01/15 12:13:23;;;;;;;12.00;8.20;;;;;;;;;;5059995;28;20462;-66
2021/01/15 12:15:53;;;;;;;12.63;8.00;;;;;;;;;;5061972;28;20071;-65
2021/01/15 12:18:21;;;;;;;10.48;7.05;;;;;;;;;;5059915;28;20040;-65
2021/01/15 12:20:48;;;;;;;12.40;8.43;;;;;;;;;;5061970;28;20044;-65
2021/01/15 12:23:15;;;;;;;11.32;7.93;;;;;;;;;;5059939;28;20443;-65
2021/01/15 12:25:41;;;;;;;11.60;7.53;;;;;;;;;;5058707;28;20053;-65
2021/01/15 12:28:18;;;;;;;11.15;7.53;;;;;;;;;;5061244;28;20048;-65
2021/01/15 12:30:44;;;;;;;10.63;6.70;;;;;;;;;;5059644;28;20049;-65
2021/01/15 12:33:16;;;;;;;8.60;5.60;;;;;;;;;;5061736;28;20106;-65
2021/01/15 12:35:43;;;;;;;9.25;6.13;;;;;;;;;;5059306;28;20049;-66
2021/01/15 12:38:20;;;;;;;9.07;6.60;;;;;;;;;;5055406;28;20052;-66
2021/01/15 12:40:48;;;;;;;9.60;6.57;;;;;;;;;;5058061;28;20515;-66
2021/01/15 12:43:14;;;;;;;12.10;8.25;;;;;;;;;;5058930;28;20068;-66
2021/01/15 12:45:44;;;;;;;10.70;7.50;;;;;;;;;;5057983;28;20073;-67
2021/01/15 12:48:12;;;;;;;11.25;8.30;;;;;;;;;;5058508;28;20091;-67
2021/01/15 12:50:39;;;;;;;11.05;7.55;;;;;;;;;;5061706;28;20048;-68
2021/01/15 12:53:06;;;;;;;13.65;7.90;;;;;;;;;;5058388;28;20048;-68
2021/01/15 12:55:32;;;;;;;10.63;7.45;;;;;;;;;;5059084;28;20082;-67
2021/01/15 12:57:59;;;;;;;11.88;7.60;;;;;;;;;;5058319;28;20045;-68
2021/01/15 13:00:27;;;;;;;12.85;7.95;;;;;;;;;;5057174;28;20045;-67
2021/01/15 13:02:53;;;;;;;11.25;8.43;;;;;;;;;;5058029;28;20102;-66
2021/01/15 13:05:28;;;;;;;14.10;8.68;;;;;;;;;;5058893;28;20060;-67
2021/01/15 13:07:57;;;;;;;12.40;7.63;;;;;;;;;;5059280;28;20045;-68
2021/01/15 13:10:24;;;;;;;17.95;8.77;;;;;;;;;;5059177;28;20056;-68
2021/01/15 13:12:51;;;;;;;10.80;7.70;;;;;;;;;;5058128;28;20111;-65
2021/01/15 13:15:24;;;;;;;11.55;7.03;;;;;;;;;;5058841;28;20484;-66
2021/01/15 13:17:58;;;;;;;11.70;9.20;;;;;;;;;;5042972;28;20391;-67
2021/01/15 13:20:27;;;;;;;13.13;8.82;;;;;;;;;;5057651;28;20094;-68
2021/01/15 13:23:05;;;;;;;12.30;8.05;;;;;;;;;;5059140;28;20064;-69
2021/01/15 13:25:33;;;;;;;12.13;9.18;;;;;;;;;;5053174;28;20525;-67
2021/01/15 13:28:02;;;;;;;12.55;8.25;;;;;;;;;;5059220;28;20048;-68
2021/01/15 13:30:29;;;;;;;15.73;8.98;;;;;;;;;;5061130;28;20479;-68
2021/01/15 13:33:16;;;;;;;13.77;8.82;;;;;;;;;;5060835;28;20052;-66
2021/01/15 13:35:46;;;;;;;11.98;7.60;;;;;;;;;;5057613;28;20045;-67
2021/01/15 13:38:14;;;;;;;19.75;8.23;;;;;;;;;;5057698;28;20045;-66
2021/01/15 13:40:40;;;;;;;11.57;8.00;;;;;;;;;;5059444;28;20044;-66
2021/01/15 13:43:07;;;;;;;9.38;7.35;;;;;;;;;;5058521;28;20053;-66
2021/01/15 13:45:33;;;;;;;12.52;8.25;;;;;;;;;;5057990;28;20056;-70
2021/01/15 13:47:59;;;;;;;13.07;8.23;;;;;;;;;;5058379;28;20045;-68
2021/01/15 13:50:34;;;;;;;16.17;9.48;;;;;;;;;;5060049;28;20439;-70
2021/01/15 13:53:01;;;;;;;10.98;7.70;;;;;;;;;;5059095;28;20056;-68
2021/01/15 13:55:28;;;;;;;12.45;8.82;;;;;;;;;;5062248;28;20048;-68
2021/01/15 13:57:55;;;;;;;19.02;9.55;;;;;;;;;;5061248;28;20068;-68
2021/01/15 14:00:22;;;;;;;12.38;8.93;;;;;;;;;;5055100;28;20102;-67
2021/01/15 14:02:49;;;;;;;14.38;9.48;;;;;;;;;;5059268;28;20044;-67
2021/01/15 14:05:15;;;;;;;12.55;8.35;;;;;;;;;;5062218;28;20048;-68
2021/01/15 14:07:43;;;;;;;14.70;8.60;;;;;;;;;;5060007;28;20037;-68
2021/01/15 14:10:10;;;;;;;14.02;8.90;;;;;;;;;;5059644;28;20053;-67
2021/01/15 14:12:36;;;;;;;14.35;9.55;;;;;;;;;;5059188;28;20049;-67
2021/01/15 14:15:03;;;;;;;12.82;8.68;;;;;;;;;;5059509;28;20049;-67
2021/01/15 14:17:29;;;;;;;13.93;8.75;;;;;;;;;;5058467;28;20045;-67
2021/01/15 14:19:56;;;;;;;12.15;8.35;;;;;;;;;;5059455;28;20568;-68
2021/01/15 14:22:22;;;;;;;15.93;8.13;;;;;;;;;;5060535;28;20052;-67
2021/01/15 14:24:49;;;;;;;12.90;7.80;;;;;;;;;;5059641;28;20049;-67
2021/01/15 14:27:15;;;;;;;13.18;8.30;;;;;;;;;;5061388;28;20051;-68
2021/01/15 14:29:41;;;;;;;11.82;8.10;;;;;;;;;;5060150;28;20045;-68
2021/01/15 14:32:10;;;;;;;11.93;8.30;;;;;;;;;;5041066;28;20375;-70
2021/01/15 14:34:36;;;;;;;14.45;7.70;;;;;;;;;;5061893;28;20053;-72
2021/01/15 14:37:02;;;;;;;15.75;8.18;;;;;;;;;;5058573;28;20561;-70
2021/01/15 14:39:28;;;;;;;12.15;8.00;;;;;;;;;;5042067;28;20037;-71
2021/01/15 14:41:56;;;;;;;14.15;8.50;;;;;;;;;;5062252;28;20129;-76
2021/01/15 14:44:22;;;;;;;15.45;8.95;;;;;;;;;;5025966;28;20139;-71
2021/01/15 14:46:48;;;;;;;15.40;8.95;;;;;;;;;;5059238;28;20094;-68
2021/01/15 14:49:15;;;;;;;14.23;9.07;;;;;;;;;;5058725;28;20098;-71
2021/01/15 14:51:43;;;;;;;11.68;7.72;;;;;;;;;;5061229;28;20166;-69
2021/01/15 14:54:16;;;;;;;10.73;7.43;;;;;;;;;;5053145;28;20084;-69
2021/01/15 14:57:11;;;;;;;13.27;8.07;;;;;;;;;;5045523;28;20110;-68